Main page
METAR-TAF:

METAR-TAF

Airports :

Governor Francisco Gabrielli International Airport

Mendoza, Argentina

latitude: 32-50S, longitude: 068-47W, elevation: 705 m

Current weather observation

The report was made 25 minutes ago, at 06:00 UTC
Wind 4 kt from the South
Temperature 15°C
Humidity 55%
Pressure 1019 hPa
Visibility 10 km or more
Broken clouds at a height of 4500 ft

METAR: SAME 230600Z 18004KT 9999 BKN045 15/06 Q1019

Time: 03:25 (06:25 UTC)

Forecast

The report was made 1 hour and 25 minutes ago, at 05:00 UTC
Forecast valid from 23 at 06 UTC to 24 at 06 UTC
Wind 5 kt from the Southeast
Visibility 10 km or more
Broken clouds at a height of 4000 ft

TAF: SAME 230500Z 2306/2406 14005KT 9999 BKN040 TX23/2320Z TN10/2310Z

Weather observations and forecasts of more than 4000 airports (METAR and TAF reports).

The available stations are represented by yellow and red dots on the map.

Hover mouse over dot to see the name of the station.

Then click to see weather observations and forecasts.

To change the map : click on the green buttons with a black cross to zoom in, on the green button with a dash to zoom out, or on the green arrows for adjacent maps.


METAR-TAF: